sensor_id;sensor_type;location;lat;lon;timestamp;P1;P2;P0
56069;PMS5003;41944;52.078;-0.058;2023-07-08T00:00:39;14;13;
56069;PMS5003;41944;52.078;-0.058;2023-07-08T00:03:06;17;12;
56069;PMS5003;41944;52.078;-0.058;2023-07-08T00:05:32;13;12;
56069;PMS5003;41944;52.078;-0.058;2023-07-08T00:08:00;15;14;
56069;PMS5003;41944;52.078;-0.058;2023-07-08T00:10:27;10;10;
56069;PMS5003;41944;52.078;-0.058;2023-07-08T00:12:56;13;10;
56069;PMS5003;41944;52.078;-0.058;2023-07-08T00:15:25;12;10;
56069;PMS5003;41944;52.078;-0.058;2023-07-08T00:17:53;12;11;
56069;PMS5003;41944;52.078;-0.058;2023-07-08T00:20:21;15;13;
56069;PMS5003;41944;52.078;-0.058;2023-07-08T00:22:52;11;9;
56069;PMS5003;41944;52.078;-0.058;2023-07-08T00:25:19;14;12;
56069;PMS5003;41944;52.078;-0.058;2023-07-08T00:27:46;14;14;
56069;PMS5003;41944;52.078;-0.058;2023-07-08T00:30:17;12;12;
56069;PMS5003;41944;52.078;-0.058;2023-07-08T00:32:48;15;14;
56069;PMS5003;41944;52.078;-0.058;2023-07-08T00:35:15;13;13;
56069;PMS5003;41944;52.078;-0.058;2023-07-08T00:37:42;13;13;
56069;PMS5003;41944;52.078;-0.058;2023-07-08T00:40:13;19;16;
56069;PMS5003;41944;52.078;-0.058;2023-07-08T00:42:42;14;11;
56069;PMS5003;41944;52.078;-0.058;2023-07-08T00:45:15;16;13;
56069;PMS5003;41944;52.078;-0.058;2023-07-08T00:47:48;13;12;
56069;PMS5003;41944;52.078;-0.058;2023-07-08T00:50:17;13;11;
56069;PMS5003;41944;52.078;-0.058;2023-07-08T00:52:45;15;12;
56069;PMS5003;41944;52.078;-0.058;2023-07-08T00:55:12;14;13;
56069;PMS5003;41944;52.078;-0.058;2023-07-08T00:57:41;14;14;
56069;PMS5003;41944;52.078;-0.058;2023-07-08T01:00:12;13;12;
56069;PMS5003;41944;52.078;-0.058;2023-07-08T01:02:44;14;12;
56069;PMS5003;41944;52.078;-0.058;2023-07-08T01:05:16;13;11;
56069;PMS5003;41944;52.078;-0.058;2023-07-08T01:07:46;14;13;
56069;PMS5003;41944;52.078;-0.058;2023-07-08T01:10:18;16;15;
56069;PMS5003;41944;52.078;-0.058;2023-07-08T01:12:51;14;13;
56069;PMS5003;41944;52.078;-0.058;2023-07-08T01:15:25;12;11;
56069;PMS5003;41944;52.078;-0.058;2023-07-08T01:17:59;17;17;
56069;PMS5003;41944;52.078;-0.058;2023-07-08T01:20:26;12;11;
56069;PMS5003;41944;52.078;-0.058;2023-07-08T01:22:52;14;13;
56069;PMS5003;41944;52.078;-0.058;2023-07-08T01:25:20;14;13;
56069;PMS5003;41944;52.078;-0.058;2023-07-08T01:27:48;17;14;
56069;PMS5003;41944;52.078;-0.058;2023-07-08T01:30:18;15;15;
56069;PMS5003;41944;52.078;-0.058;2023-07-08T01:32:46;11;11;
56069;PMS5003;41944;52.078;-0.058;2023-07-08T01:35:16;14;12;
56069;PMS5003;41944;52.078;-0.058;2023-07-08T01:37:46;15;14;
56069;PMS5003;41944;52.078;-0.058;2023-07-08T01:40:19;16;12;
56069;PMS5003;41944;52.078;-0.058;2023-07-08T01:42:51;17;14;
56069;PMS5003;41944;52.078;-0.058;2023-07-08T01:45:20;12;12;
56069;PMS5003;41944;52.078;-0.058;2023-07-08T01:47:50;15;13;
56069;PMS5003;41944;52.078;-0.058;2023-07-08T01:50:21;14;14;
56069;PMS5003;41944;52.078;-0.058;2023-07-08T01:52:50;10;10;
56069;PMS5003;41944;52.078;-0.058;2023-07-08T01:55:20;16;14;
56069;PMS5003;41944;52.078;-0.058;2023-07-08T01:57:50;18;15;
56069;PMS5003;41944;52.078;-0.058;2023-07-08T02:00:18;17;14;
56069;PMS5003;41944;52.078;-0.058;2023-07-08T02:02:45;12;12;
56069;PMS5003;41944;52.078;-0.058;2023-07-08T02:05:12;16;16;
56069;PMS5003;41944;52.078;-0.058;2023-07-08T02:07:40;15;13;
56069;PMS5003;41944;52.078;-0.058;2023-07-08T02:10:07;13;11;
56069;PMS5003;41944;52.078;-0.058;2023-07-08T02:12:35;15;13;
56069;PMS5003;41944;52.078;-0.058;2023-07-08T02:15:02;14;14;
56069;PMS5003;41944;52.078;-0.058;2023-07-08T02:17:29;14;13;
56069;PMS5003;41944;52.078;-0.058;2023-07-08T02:19:56;15;15;
56069;PMS5003;41944;52.078;-0.058;2023-07-08T02:22:23;15;12;
56069;PMS5003;41944;52.078;-0.058;2023-07-08T02:24:51;15;12;
56069;PMS5003;41944;52.078;-0.058;2023-07-08T02:27:18;15;14;
56069;PMS5003;41944;52.078;-0.058;2023-07-08T02:29:45;12;12;
56069;PMS5003;41944;52.078;-0.058;2023-07-08T02:32:12;14;13;
56069;PMS5003;41944;52.078;-0.058;2023-07-08T02:34:39;13;13;
56069;PMS5003;41944;52.078;-0.058;2023-07-08T02:37:06;16;14;
56069;PMS5003;41944;52.078;-0.058;2023-07-08T02:39:33;12;11;
56069;PMS5003;41944;52.078;-0.058;2023-07-08T02:42:01;13;12;
56069;PMS5003;41944;52.078;-0.058;2023-07-08T02:44:28;13;13;
56069;PMS5003;41944;52.078;-0.058;2023-07-08T02:46:55;12;12;
56069;PMS5003;41944;52.078;-0.058;2023-07-08T02:49:22;16;12;
56069;PMS5003;41944;52.078;-0.058;2023-07-08T02:51:49;11;11;
56069;PMS5003;41944;52.078;-0.058;2023-07-08T02:54:16;12;12;
56069;PMS5003;41944;52.078;-0.058;2023-07-08T02:56:43;16;15;
56069;PMS5003;41944;52.078;-0.058;2023-07-08T02:59:09;16;13;
56069;PMS5003;41944;52.078;-0.058;2023-07-08T03:01:36;13;13;
56069;PMS5003;41944;52.078;-0.058;2023-07-08T03:04:03;13;13;
56069;PMS5003;41944;52.078;-0.058;2023-07-08T03:06:30;14;12;
56069;PMS5003;41944;52.078;-0.058;2023-07-08T03:08:57;12;12;
56069;PMS5003;41944;52.078;-0.058;2023-07-08T03:11:24;12;12;
56069;PMS5003;41944;52.078;-0.058;2023-07-08T03:13:52;13;13;
56069;PMS5003;41944;52.078;-0.058;2023-07-08T03:16:19;14;13;
56069;PMS5003;41944;52.078;-0.058;2023-07-08T03:18:46;16;15;
56069;PMS5003;41944;52.078;-0.058;2023-07-08T03:21:13;20;16;
56069;PMS5003;41944;52.078;-0.058;2023-07-08T03:23:41;15;13;
56069;PMS5003;41944;52.078;-0.058;2023-07-08T03:26:09;18;15;
56069;PMS5003;41944;52.078;-0.058;2023-07-08T03:28:41;15;13;
56069;PMS5003;41944;52.078;-0.058;2023-07-08T03:31:09;15;15;
56069;PMS5003;41944;52.078;-0.058;2023-07-08T03:33:36;13;11;
56069;PMS5003;41944;52.078;-0.058;2023-07-08T03:36:04;15;15;
56069;PMS5003;41944;52.078;-0.058;2023-07-08T03:38:35;16;15;
56069;PMS5003;41944;52.078;-0.058;2023-07-08T03:41:03;12;11;
56069;PMS5003;41944;52.078;-0.058;2023-07-08T03:43:29;19;16;
56069;PMS5003;41944;52.078;-0.058;2023-07-08T03:45:56;14;11;
56069;PMS5003;41944;52.078;-0.058;2023-07-08T03:48:23;16;16;
56069;PMS5003;41944;52.078;-0.058;2023-07-08T03:50:51;15;14;
56069;PMS5003;41944;52.078;-0.058;2023-07-08T03:53:18;15;14;
56069;PMS5003;41944;52.078;-0.058;2023-07-08T03:55:45;14;13;
56069;PMS5003;41944;52.078;-0.058;2023-07-08T03:58:12;17;14;
56069;PMS5003;41944;52.078;-0.058;2023-07-08T04:00:38;16;16;
56069;PMS5003;41944;52.078;-0.058;2023-07-08T04:03:05;15;15;
56069;PMS5003;41944;52.078;-0.058;2023-07-08T04:05:34;17;14;
56069;PMS5003;41944;52.078;-0.058;2023-07-08T04:08:01;16;15;
56069;PMS5003;41944;52.078;-0.058;2023-07-08T04:10:28;15;13;
56069;PMS5003;41944;52.078;-0.058;2023-07-08T04:12:55;18;14;
56069;PMS5003;41944;52.078;-0.058;2023-07-08T04:15:22;15;13;
56069;PMS5003;41944;52.078;-0.058;2023-07-08T04:17:50;16;16;
56069;PMS5003;41944;52.078;-0.058;2023-07-08T04:20:18;18;15;
56069;PMS5003;41944;52.078;-0.058;2023-07-08T04:22:46;12;12;
56069;PMS5003;41944;52.078;-0.058;2023-07-08T04:25:13;16;13;
56069;PMS5003;41944;52.078;-0.058;2023-07-08T04:27:41;15;13;
56069;PMS5003;41944;52.078;-0.058;2023-07-08T04:30:09;13;13;
56069;PMS5003;41944;52.078;-0.058;2023-07-08T04:32:48;15;14;
56069;PMS5003;41944;52.078;-0.058;2023-07-08T04:35:16;18;15;
56069;PMS5003;41944;52.078;-0.058;2023-07-08T04:37:44;15;14;
56069;PMS5003;41944;52.078;-0.058;2023-07-08T04:40:12;19;14;
56069;PMS5003;41944;52.078;-0.058;2023-07-08T04:42:43;18;13;
56069;PMS5003;41944;52.078;-0.058;2023-07-08T04:45:10;12;12;
56069;PMS5003;41944;52.078;-0.058;2023-07-08T04:47:37;17;15;
56069;PMS5003;41944;52.078;-0.058;2023-07-08T04:50:04;18;13;
56069;PMS5003;41944;52.078;-0.058;2023-07-08T04:52:31;16;14;
56069;PMS5003;41944;52.078;-0.058;2023-07-08T04:54:59;19;14;
56069;PMS5003;41944;52.078;-0.058;2023-07-08T04:57:26;17;14;
56069;PMS5003;41944;52.078;-0.058;2023-07-08T04:59:53;18;15;
56069;PMS5003;41944;52.078;-0.058;2023-07-08T05:02:20;17;16;
56069;PMS5003;41944;52.078;-0.058;2023-07-08T05:04:46;19;14;
56069;PMS5003;41944;52.078;-0.058;2023-07-08T05:07:13;17;15;
56069;PMS5003;41944;52.078;-0.058;2023-07-08T05:09:40;14;14;
56069;PMS5003;41944;52.078;-0.058;2023-07-08T05:12:07;18;14;
56069;PMS5003;41944;52.078;-0.058;2023-07-08T05:14:34;14;13;
56069;PMS5003;41944;52.078;-0.058;2023-07-08T05:17:01;16;15;
56069;PMS5003;41944;52.078;-0.058;2023-07-08T05:19:28;15;13;
56069;PMS5003;41944;52.078;-0.058;2023-07-08T05:21:55;19;15;
56069;PMS5003;41944;52.078;-0.058;2023-07-08T05:24:22;18;17;
56069;PMS5003;41944;52.078;-0.058;2023-07-08T05:26:50;18;15;
56069;PMS5003;41944;52.078;-0.058;2023-07-08T05:29:17;15;15;
56069;PMS5003;41944;52.078;-0.058;2023-07-08T05:31:44;16;16;
56069;PMS5003;41944;52.078;-0.058;2023-07-08T05:34:11;17;15;
56069;PMS5003;41944;52.078;-0.058;2023-07-08T05:36:38;17;17;
56069;PMS5003;41944;52.078;-0.058;2023-07-08T05:39:05;15;13;
56069;PMS5003;41944;52.078;-0.058;2023-07-08T05:41:32;14;14;
56069;PMS5003;41944;52.078;-0.058;2023-07-08T05:43:59;15;13;
56069;PMS5003;41944;52.078;-0.058;2023-07-08T05:46:26;16;14;
56069;PMS5003;41944;52.078;-0.058;2023-07-08T05:48:53;18;18;
56069;PMS5003;41944;52.078;-0.058;2023-07-08T05:51:20;16;14;
56069;PMS5003;41944;52.078;-0.058;2023-07-08T05:53:48;21;17;
56069;PMS5003;41944;52.078;-0.058;2023-07-08T05:56:14;15;13;
56069;PMS5003;41944;52.078;-0.058;2023-07-08T05:58:41;28;27;
56069;PMS5003;41944;52.078;-0.058;2023-07-08T06:01:08;13;13;
56069;PMS5003;41944;52.078;-0.058;2023-07-08T06:03:36;14;14;
56069;PMS5003;41944;52.078;-0.058;2023-07-08T06:06:04;11;11;
56069;PMS5003;41944;52.078;-0.058;2023-07-08T06:08:31;15;14;
56069;PMS5003;41944;52.078;-0.058;2023-07-08T06:10:58;16;14;
56069;PMS5003;41944;52.078;-0.058;2023-07-08T06:13:25;18;17;
56069;PMS5003;41944;52.078;-0.058;2023-07-08T06:15:52;14;13;
56069;PMS5003;41944;52.078;-0.058;2023-07-08T06:18:19;13;11;
56069;PMS5003;41944;52.078;-0.058;2023-07-08T06:20:52;14;11;
56069;PMS5003;41944;52.078;-0.058;2023-07-08T06:23:19;17;14;
56069;PMS5003;41944;52.078;-0.058;2023-07-08T06:25:46;11;11;
56069;PMS5003;41944;52.078;-0.058;2023-07-08T06:28:13;17;15;
56069;PMS5003;41944;52.078;-0.058;2023-07-08T06:30:40;17;16;
56069;PMS5003;41944;52.078;-0.058;2023-07-08T06:33:07;17;14;
56069;PMS5003;41944;52.078;-0.058;2023-07-08T06:35:34;19;17;
56069;PMS5003;41944;52.078;-0.058;2023-07-08T06:38:01;16;16;
56069;PMS5003;41944;52.078;-0.058;2023-07-08T06:40:27;13;13;
56069;PMS5003;41944;52.078;-0.058;2023-07-08T06:42:55;19;17;
56069;PMS5003;41944;52.078;-0.058;2023-07-08T06:45:22;19;15;
56069;PMS5003;41944;52.078;-0.058;2023-07-08T06:47:50;12;12;
56069;PMS5003;41944;52.078;-0.058;2023-07-08T06:50:17;14;14;
56069;PMS5003;41944;52.078;-0.058;2023-07-08T06:52:44;13;11;
56069;PMS5003;41944;52.078;-0.058;2023-07-08T06:55:11;13;13;
56069;PMS5003;41944;52.078;-0.058;2023-07-08T06:57:38;10;10;
56069;PMS5003;41944;52.078;-0.058;2023-07-08T07:00:05;15;15;
56069;PMS5003;41944;52.078;-0.058;2023-07-08T07:02:33;13;12;
56069;PMS5003;41944;52.078;-0.058;2023-07-08T07:05:00;13;12;
56069;PMS5003;41944;52.078;-0.058;2023-07-08T07:07:27;12;11;
56069;PMS5003;41944;52.078;-0.058;2023-07-08T07:09:55;11;8;
56069;PMS5003;41944;52.078;-0.058;2023-07-08T07:12:23;17;14;
56069;PMS5003;41944;52.078;-0.058;2023-07-08T07:14:51;9;9;
56069;PMS5003;41944;52.078;-0.058;2023-07-08T07:17:18;10;10;
56069;PMS5003;41944;52.078;-0.058;2023-07-08T07:19:46;11;9;
56069;PMS5003;41944;52.078;-0.058;2023-07-08T07:22:13;12;12;
56069;PMS5003;41944;52.078;-0.058;2023-07-08T07:24:40;13;10;
56069;PMS5003;41944;52.078;-0.058;2023-07-08T07:27:08;9;9;
56069;PMS5003;41944;52.078;-0.058;2023-07-08T07:29:41;9;9;
56069;PMS5003;41944;52.078;-0.058;2023-07-08T07:32:10;13;12;
56069;PMS5003;41944;52.078;-0.058;2023-07-08T07:34:37;13;10;
56069;PMS5003;41944;52.078;-0.058;2023-07-08T07:37:04;13;11;
56069;PMS5003;41944;52.078;-0.058;2023-07-08T07:39:32;12;12;
56069;PMS5003;41944;52.078;-0.058;2023-07-08T07:41:58;9;9;
56069;PMS5003;41944;52.078;-0.058;2023-07-08T07:44:26;11;10;
56069;PMS5003;41944;52.078;-0.058;2023-07-08T07:46:53;10;10;
56069;PMS5003;41944;52.078;-0.058;2023-07-08T07:49:20;10;9;
56069;PMS5003;41944;52.078;-0.058;2023-07-08T07:51:48;11;11;
56069;PMS5003;41944;52.078;-0.058;2023-07-08T07:54:15;15;14;
56069;PMS5003;41944;52.078;-0.058;2023-07-08T07:56:42;10;10;
56069;PMS5003;41944;52.078;-0.058;2023-07-08T07:59:09;12;12;
56069;PMS5003;41944;52.078;-0.058;2023-07-08T08:01:37;10;10;
56069;PMS5003;41944;52.078;-0.058;2023-07-08T08:04:04;13;11;
56069;PMS5003;41944;52.078;-0.058;2023-07-08T08:06:31;11;11;
56069;PMS5003;41944;52.078;-0.058;2023-07-08T08:08:58;15;13;
56069;PMS5003;41944;52.078;-0.058;2023-07-08T08:11:25;12;10;
56069;PMS5003;41944;52.078;-0.058;2023-07-08T08:13:53;10;10;
56069;PMS5003;41944;52.078;-0.058;2023-07-08T08:16:20;12;12;
56069;PMS5003;41944;52.078;-0.058;2023-07-08T08:18:47;10;10;
56069;PMS5003;41944;52.078;-0.058;2023-07-08T08:21:15;13;10;
56069;PMS5003;41944;52.078;-0.058;2023-07-08T08:23:43;10;9;
56069;PMS5003;41944;52.078;-0.058;2023-07-08T08:26:09;14;9;
56069;PMS5003;41944;52.078;-0.058;2023-07-08T08:28:37;9;9;
56069;PMS5003;41944;52.078;-0.058;2023-07-08T08:31:04;9;9;
56069;PMS5003;41944;52.078;-0.058;2023-07-08T08:33:31;10;10;
56069;PMS5003;41944;52.078;-0.058;2023-07-08T08:35:58;14;11;
56069;PMS5003;41944;52.078;-0.058;2023-07-08T08:38:25;12;10;
56069;PMS5003;41944;52.078;-0.058;2023-07-08T08:40:53;12;11;
56069;PMS5003;41944;52.078;-0.058;2023-07-08T08:43:21;12;11;
56069;PMS5003;41944;52.078;-0.058;2023-07-08T08:45:59;10;9;
56069;PMS5003;41944;52.078;-0.058;2023-07-08T08:48:32;10;9;
56069;PMS5003;41944;52.078;-0.058;2023-07-08T08:51:09;13;11;
56069;PMS5003;41944;52.078;-0.058;2023-07-08T08:53:41;12;11;
56069;PMS5003;41944;52.078;-0.058;2023-07-08T08:56:10;12;10;
56069;PMS5003;41944;52.078;-0.058;2023-07-08T08:58:47;12;12;
56069;PMS5003;41944;52.078;-0.058;2023-07-08T09:01:21;11;9;
56069;PMS5003;41944;52.078;-0.058;2023-07-08T09:03:50;14;11;
56069;PMS5003;41944;52.078;-0.058;2023-07-08T09:06:21;13;11;
56069;PMS5003;41944;52.078;-0.058;2023-07-08T09:08:51;12;9;
56069;PMS5003;41944;52.078;-0.058;2023-07-08T09:11:27;10;9;
56069;PMS5003;41944;52.078;-0.058;2023-07-08T09:14:04;12;12;
56069;PMS5003;41944;52.078;-0.058;2023-07-08T09:16:41;10;9;
56069;PMS5003;41944;52.078;-0.058;2023-07-08T09:19:18;12;12;
56069;PMS5003;41944;52.078;-0.058;2023-07-08T09:21:51;10;9;
56069;PMS5003;41944;52.078;-0.058;2023-07-08T09:24:27;15;12;
56069;PMS5003;41944;52.078;-0.058;2023-07-08T09:26:59;11;11;
56069;PMS5003;41944;52.078;-0.058;2023-07-08T09:29:27;15;12;
56069;PMS5003;41944;52.078;-0.058;2023-07-08T09:31:54;12;10;
56069;PMS5003;41944;52.078;-0.058;2023-07-08T09:34:22;11;11;
56069;PMS5003;41944;52.078;-0.058;2023-07-08T09:37:01;13;8;
56069;PMS5003;41944;52.078;-0.058;2023-07-08T09:39:29;14;12;
56069;PMS5003;41944;52.078;-0.058;2023-07-08T09:41:56;12;12;
56069;PMS5003;41944;52.078;-0.058;2023-07-08T09:44:24;11;11;
56069;PMS5003;41944;52.078;-0.058;2023-07-08T09:46:52;17;16;
56069;PMS5003;41944;52.078;-0.058;2023-07-08T09:49:21;15;15;
56069;PMS5003;41944;52.078;-0.058;2023-07-08T09:51:51;14;11;
56069;PMS5003;41944;52.078;-0.058;2023-07-08T09:54:19;16;11;
56069;PMS5003;41944;52.078;-0.058;2023-07-08T09:56:51;12;10;
56069;PMS5003;41944;52.078;-0.058;2023-07-08T09:59:24;10;10;
56069;PMS5003;41944;52.078;-0.058;2023-07-08T10:01:56;14;12;
56069;PMS5003;41944;52.078;-0.058;2023-07-08T10:04:25;11;11;
56069;PMS5003;41944;52.078;-0.058;2023-07-08T10:06:53;12;11;
56069;PMS5003;41944;52.078;-0.058;2023-07-08T10:09:24;10;8;
56069;PMS5003;41944;52.078;-0.058;2023-07-08T10:11:53;12;11;
56069;PMS5003;41944;52.078;-0.058;2023-07-08T10:14:27;10;9;
56069;PMS5003;41944;52.078;-0.058;2023-07-08T10:16:58;9;9;
56069;PMS5003;41944;52.078;-0.058;2023-07-08T10:19:25;8;8;
56069;PMS5003;41944;52.078;-0.058;2023-07-08T10:21:55;10;9;
56069;PMS5003;41944;52.078;-0.058;2023-07-08T10:24:38;6;6;
56069;PMS5003;41944;52.078;-0.058;2023-07-08T10:27:21;8;8;
56069;PMS5003;41944;52.078;-0.058;2023-07-08T10:29:54;8;8;
56069;PMS5003;41944;52.078;-0.058;2023-07-08T10:32:33;7;7;
56069;PMS5003;41944;52.078;-0.058;2023-07-08T10:35:09;6;6;
56069;PMS5003;41944;52.078;-0.058;2023-07-08T10:37:45;8;6;
56069;PMS5003;41944;52.078;-0.058;2023-07-08T10:40:22;7;6;
56069;PMS5003;41944;52.078;-0.058;2023-07-08T10:43:05;6;6;
56069;PMS5003;41944;52.078;-0.058;2023-07-08T10:45:47;5;5;
56069;PMS5003;41944;52.078;-0.058;2023-07-08T10:48:24;6;5;
56069;PMS5003;41944;52.078;-0.058;2023-07-08T10:51:06;6;6;
56069;PMS5003;41944;52.078;-0.058;2023-07-08T10:53:48;7;4;
56069;PMS5003;41944;52.078;-0.058;2023-07-08T10:56:28;6;5;
56069;PMS5003;41944;52.078;-0.058;2023-07-08T10:59:07;7;5;
56069;PMS5003;41944;52.078;-0.058;2023-07-08T11:01:57;4;4;
56069;PMS5003;41944;52.078;-0.058;2023-07-08T11:04:45;5;5;
56069;PMS5003;41944;52.078;-0.058;2023-07-08T11:07:26;5;5;
56069;PMS5003;41944;52.078;-0.058;2023-07-08T11:10:02;7;6;
56069;PMS5003;41944;52.078;-0.058;2023-07-08T11:12:34;8;6;
56069;PMS5003;41944;52.078;-0.058;2023-07-08T11:15:11;8;5;
56069;PMS5003;41944;52.078;-0.058;2023-07-08T11:17:43;5;3;
56069;PMS5003;41944;52.078;-0.058;2023-07-08T11:20:17;6;5;
56069;PMS5003;41944;52.078;-0.058;2023-07-08T11:22:52;8;8;
56069;PMS5003;41944;52.078;-0.058;2023-07-08T11:25:25;7;5;
56069;PMS5003;41944;52.078;-0.058;2023-07-08T11:27:56;5;4;
56069;PMS5003;41944;52.078;-0.058;2023-07-08T11:30:27;6;6;
56069;PMS5003;41944;52.078;-0.058;2023-07-08T11:32:58;6;5;
56069;PMS5003;41944;52.078;-0.058;2023-07-08T11:35:33;7;7;
56069;PMS5003;41944;52.078;-0.058;2023-07-08T11:38:04;5;5;
56069;PMS5003;41944;52.078;-0.058;2023-07-08T11:40:32;8;6;
56069;PMS5003;41944;52.078;-0.058;2023-07-08T11:43:15;5;5;
56069;PMS5003;41944;52.078;-0.058;2023-07-08T11:45:43;5;5;
56069;PMS5003;41944;52.078;-0.058;2023-07-08T11:48:11;6;6;
56069;PMS5003;41944;52.078;-0.058;2023-07-08T11:50:40;7;7;
56069;PMS5003;41944;52.078;-0.058;2023-07-08T11:53:10;8;8;
56069;PMS5003;41944;52.078;-0.058;2023-07-08T11:55:58;9;5;
56069;PMS5003;41944;52.078;-0.058;2023-07-08T11:58:26;7;6;
56069;PMS5003;41944;52.078;-0.058;2023-07-08T12:00:57;12;8;
56069;PMS5003;41944;52.078;-0.058;2023-07-08T12:03:31;5;5;
56069;PMS5003;41944;52.078;-0.058;2023-07-08T12:06:04;10;8;
56069;PMS5003;41944;52.078;-0.058;2023-07-08T12:09:13;8;7;
56069;PMS5003;41944;52.078;-0.058;2023-07-08T12:11:47;6;6;
56069;PMS5003;41944;52.078;-0.058;2023-07-08T12:14:14;7;5;
56069;PMS5003;41944;52.078;-0.058;2023-07-08T12:16:42;6;6;
56069;PMS5003;41944;52.078;-0.058;2023-07-08T12:19:10;7;5;
56069;PMS5003;41944;52.078;-0.058;2023-07-08T12:21:42;7;6;
56069;PMS5003;41944;52.078;-0.058;2023-07-08T12:24:10;7;4;
56069;PMS5003;41944;52.078;-0.058;2023-07-08T12:26:39;6;6;
56069;PMS5003;41944;52.078;-0.058;2023-07-08T12:29:07;8;6;
56069;PMS5003;41944;52.078;-0.058;2023-07-08T12:31:37;8;7;
56069;PMS5003;41944;52.078;-0.058;2023-07-08T12:34:07;6;6;
56069;PMS5003;41944;52.078;-0.058;2023-07-08T12:36:39;9;8;
56069;PMS5003;41944;52.078;-0.058;2023-07-08T12:39:07;6;6;
56069;PMS5003;41944;52.078;-0.058;2023-07-08T12:41:38;9;7;
56069;PMS5003;41944;52.078;-0.058;2023-07-08T12:44:08;11;7;
56069;PMS5003;41944;52.078;-0.058;2023-07-08T12:46:42;10;5;
56069;PMS5003;41944;52.078;-0.058;2023-07-08T12:49:08;7;7;
56069;PMS5003;41944;52.078;-0.058;2023-07-08T12:51:35;13;9;
56069;PMS5003;41944;52.078;-0.058;2023-07-08T12:54:02;8;6;
56069;PMS5003;41944;52.078;-0.058;2023-07-08T12:56:29;7;7;
56069;PMS5003;41944;52.078;-0.058;2023-07-08T12:58:57;8;8;
56069;PMS5003;41944;52.078;-0.058;2023-07-08T13:01:25;7;6;
56069;PMS5003;41944;52.078;-0.058;2023-07-08T13:04:02;8;8;
56069;PMS5003;41944;52.078;-0.058;2023-07-08T13:06:32;10;10;
56069;PMS5003;41944;52.078;-0.058;2023-07-08T13:09:05;10;8;
56069;PMS5003;41944;52.078;-0.058;2023-07-08T13:11:35;10;9;
56069;PMS5003;41944;52.078;-0.058;2023-07-08T13:14:04;10;8;
56069;PMS5003;41944;52.078;-0.058;2023-07-08T13:16:33;7;7;
56069;PMS5003;41944;52.078;-0.058;2023-07-08T13:19:02;6;6;
56069;PMS5003;41944;52.078;-0.058;2023-07-08T13:21:30;4;4;
56069;PMS5003;41944;52.078;-0.058;2023-07-08T13:23:59;5;5;
56069;PMS5003;41944;52.078;-0.058;2023-07-08T13:26:27;8;8;
56069;PMS5003;41944;52.078;-0.058;2023-07-08T13:28:59;9;7;
56069;PMS5003;41944;52.078;-0.058;2023-07-08T13:31:31;8;8;
56069;PMS5003;41944;52.078;-0.058;2023-07-08T13:34:05;8;7;
56069;PMS5003;41944;52.078;-0.058;2023-07-08T13:36:35;8;6;
56069;PMS5003;41944;52.078;-0.058;2023-07-08T13:39:06;8;8;
56069;PMS5003;41944;52.078;-0.058;2023-07-08T13:41:35;9;7;
56069;PMS5003;41944;52.078;-0.058;2023-07-08T13:44:03;5;5;
56069;PMS5003;41944;52.078;-0.058;2023-07-08T13:46:34;6;6;
56069;PMS5003;41944;52.078;-0.058;2023-07-08T13:49:02;9;8;
56069;PMS5003;41944;52.078;-0.058;2023-07-08T13:51:37;6;6;
56069;PMS5003;41944;52.078;-0.058;2023-07-08T13:54:09;7;7;
56069;PMS5003;41944;52.078;-0.058;2023-07-08T13:56:41;9;7;
56069;PMS5003;41944;52.078;-0.058;2023-07-08T13:59:10;9;7;
56069;PMS5003;41944;52.078;-0.058;2023-07-08T14:01:42;5;5;
56069;PMS5003;41944;52.078;-0.058;2023-07-08T14:04:10;9;7;
56069;PMS5003;41944;52.078;-0.058;2023-07-08T14:06:39;10;8;
56069;PMS5003;41944;52.078;-0.058;2023-07-08T14:09:16;13;7;
56069;PMS5003;41944;52.078;-0.058;2023-07-08T14:11:45;10;7;
56069;PMS5003;41944;52.078;-0.058;2023-07-08T14:14:13;10;7;
56069;PMS5003;41944;52.078;-0.058;2023-07-08T14:16:41;9;7;
56069;PMS5003;41944;52.078;-0.058;2023-07-08T14:19:11;10;9;
56069;PMS5003;41944;52.078;-0.058;2023-07-08T14:21:41;8;7;
56069;PMS5003;41944;52.078;-0.058;2023-07-08T14:24:10;7;6;
56069;PMS5003;41944;52.078;-0.058;2023-07-08T14:26:38;10;8;
56069;PMS5003;41944;52.078;-0.058;2023-07-08T14:29:07;9;7;
56069;PMS5003;41944;52.078;-0.058;2023-07-08T14:31:35;11;11;
56069;PMS5003;41944;52.078;-0.058;2023-07-08T14:34:04;9;7;
56069;PMS5003;41944;52.078;-0.058;2023-07-08T14:36:33;7;7;
56069;PMS5003;41944;52.078;-0.058;2023-07-08T14:39:01;8;8;
56069;PMS5003;41944;52.078;-0.058;2023-07-08T14:41:38;8;7;
56069;PMS5003;41944;52.078;-0.058;2023-07-08T14:44:09;7;7;
56069;PMS5003;41944;52.078;-0.058;2023-07-08T14:46:44;9;9;
56069;PMS5003;41944;52.078;-0.058;2023-07-08T14:49:12;15;12;
56069;PMS5003;41944;52.078;-0.058;2023-07-08T14:49:15;16;12;
56069;PMS5003;41944;52.078;-0.058;2023-07-08T14:51:43;11;11;
56069;PMS5003;41944;52.078;-0.058;2023-07-08T14:54:10;9;8;
56069;PMS5003;41944;52.078;-0.058;2023-07-08T14:56:38;12;9;
56069;PMS5003;41944;52.078;-0.058;2023-07-08T14:59:07;8;8;
56069;PMS5003;41944;52.078;-0.058;2023-07-08T15:01:41;6;6;
56069;PMS5003;41944;52.078;-0.058;2023-07-08T15:04:10;8;8;
56069;PMS5003;41944;52.078;-0.058;2023-07-08T15:06:38;11;11;
56069;PMS5003;41944;52.078;-0.058;2023-07-08T15:09:05;5;5;
56069;PMS5003;41944;52.078;-0.058;2023-07-08T15:11:32;6;6;
56069;PMS5003;41944;52.078;-0.058;2023-07-08T15:14:00;10;8;
56069;PMS5003;41944;52.078;-0.058;2023-07-08T15:16:28;7;5;
56069;PMS5003;41944;52.078;-0.058;2023-07-08T15:18:55;8;6;
56069;PMS5003;41944;52.078;-0.058;2023-07-08T15:21:22;12;10;
56069;PMS5003;41944;52.078;-0.058;2023-07-08T15:23:49;7;7;
56069;PMS5003;41944;52.078;-0.058;2023-07-08T15:26:16;7;7;
56069;PMS5003;41944;52.078;-0.058;2023-07-08T15:28:46;12;8;
56069;PMS5003;41944;52.078;-0.058;2023-07-08T15:31:15;8;6;
56069;PMS5003;41944;52.078;-0.058;2023-07-08T15:33:43;6;6;
56069;PMS5003;41944;52.078;-0.058;2023-07-08T15:36:11;7;7;
56069;PMS5003;41944;52.078;-0.058;2023-07-08T15:38:39;6;5;
56069;PMS5003;41944;52.078;-0.058;2023-07-08T15:41:09;9;8;
56069;PMS5003;41944;52.078;-0.058;2023-07-08T15:43:43;7;6;
56069;PMS5003;41944;52.078;-0.058;2023-07-08T15:46:10;10;8;
56069;PMS5003;41944;52.078;-0.058;2023-07-08T15:48:37;8;6;
56069;PMS5003;41944;52.078;-0.058;2023-07-08T15:51:04;11;10;
56069;PMS5003;41944;52.078;-0.058;2023-07-08T15:53:31;8;7;
56069;PMS5003;41944;52.078;-0.058;2023-07-08T15:55:58;10;8;
56069;PMS5003;41944;52.078;-0.058;2023-07-08T15:58:25;11;9;
56069;PMS5003;41944;52.078;-0.058;2023-07-08T16:00:55;9;9;
56069;PMS5003;41944;52.078;-0.058;2023-07-08T16:03:23;9;8;
56069;PMS5003;41944;52.078;-0.058;2023-07-08T16:05:53;8;8;
56069;PMS5003;41944;52.078;-0.058;2023-07-08T16:08:22;9;7;
56069;PMS5003;41944;52.078;-0.058;2023-07-08T16:10:51;11;9;
56069;PMS5003;41944;52.078;-0.058;2023-07-08T16:13:21;8;8;
56069;PMS5003;41944;52.078;-0.058;2023-07-08T16:15:51;10;8;
56069;PMS5003;41944;52.078;-0.058;2023-07-08T16:18:19;7;7;
56069;PMS5003;41944;52.078;-0.058;2023-07-08T16:20:46;11;9;
56069;PMS5003;41944;52.078;-0.058;2023-07-08T16:23:14;6;6;
56069;PMS5003;41944;52.078;-0.058;2023-07-08T16:25:42;9;8;